createdAt,value
2023-02-19T00:01:48.904Z,48.47
2023-02-19T00:04:19.886Z,49.33
2023-02-19T00:06:48.627Z,46.25
2023-02-19T00:09:19.104Z,54.22
2023-02-19T00:11:47.860Z,48.03
2023-02-19T00:14:18.362Z,50.03
2023-02-19T00:16:46.447Z,45.95
2023-02-19T00:19:16.484Z,51.95
2023-02-19T00:21:45.891Z,44.47
2023-02-19T00:24:15.784Z,41.40
2023-02-19T00:26:45.513Z,43.53
2023-02-19T00:29:15.724Z,46.70
2023-02-19T00:31:44.771Z,36.33
2023-02-19T00:34:13.656Z,35.20
2023-02-19T00:36:42.812Z,35.47
2023-02-19T00:39:16.074Z,32.53
2023-02-19T00:41:44.428Z,35.60
2023-02-19T00:44:13.305Z,29.92
2023-02-19T00:46:43.602Z,29.48
2023-02-19T00:49:19.899Z,29.17
2023-02-19T00:51:48.654Z,39.50
2023-02-19T00:54:18.578Z,28.25
2023-02-19T00:56:46.726Z,30.88
2023-02-19T00:59:15.085Z,28.38
2023-02-19T01:01:44.432Z,26.45
2023-02-19T01:04:13.174Z,29.30
2023-02-19T01:06:41.317Z,25.17
2023-02-19T01:09:09.465Z,25.95
2023-02-19T01:11:38.885Z,27.75
2023-02-19T01:14:06.922Z,30.17
2023-02-19T01:16:34.937Z,29.05
2023-02-19T01:19:03.003Z,21.63
2023-02-19T01:21:31.530Z,23.13
2023-02-19T01:24:00.313Z,24.00
2023-02-19T01:26:34.502Z,22.98
2023-02-19T01:29:04.675Z,24.42
2023-02-19T01:31:33.281Z,29.83
2023-02-19T01:34:03.205Z,27.30
2023-02-19T01:36:33.644Z,24.73
2023-02-19T01:39:03.993Z,23.23
2023-02-19T01:41:33.326Z,25.00
2023-02-19T01:44:05.272Z,27.35
2023-02-19T01:46:34.324Z,21.38
2023-02-19T01:49:06.650Z,22.50
2023-02-19T01:51:37.599Z,27.35
2023-02-19T01:54:08.202Z,23.08
2023-02-19T01:56:39.442Z,20.00
2023-02-19T01:59:09.391Z,19.15
2023-02-19T02:01:39.583Z,26.83
2023-02-19T02:04:10.972Z,30.08
2023-02-19T02:06:45.325Z,28.70
2023-02-19T02:09:31.512Z,22.45
2023-02-19T02:11:59.620Z,25.98
2023-02-19T02:14:32.200Z,22.73
2023-02-19T02:17:10.328Z,24.70
2023-02-19T02:20:03.565Z,19.50
2023-02-19T02:22:37.137Z,19.50
2023-02-19T02:25:34.654Z,27.70
2023-02-19T02:28:18.209Z,18.23
2023-02-19T02:30:51.335Z,19.23
2023-02-19T02:33:28.460Z,23.52
2023-02-19T02:36:00.140Z,23.13
2023-02-19T02:38:31.930Z,27.55
2023-02-19T02:41:00.488Z,21.00
2023-02-19T02:43:28.570Z,27.17
2023-02-19T02:45:58.003Z,28.30
2023-02-19T02:48:34.327Z,23.52
2023-02-19T02:51:09.007Z,26.33
2023-02-19T02:53:59.928Z,25.67
2023-02-19T02:56:28.329Z,23.58
2023-02-19T02:58:57.810Z,23.77
2023-02-19T03:01:48.806Z,29.20
2023-02-19T03:04:24.782Z,23.15
2023-02-19T03:06:54.899Z,21.63
2023-02-19T03:09:30.225Z,25.27
2023-02-19T03:12:31.934Z,23.58
2023-02-19T03:15:23.357Z,21.70
2023-02-19T03:18:15.644Z,20.88
2023-02-19T03:20:47.559Z,25.13
2023-02-19T03:23:17.183Z,18.20
2023-02-19T03:25:59.660Z,23.38
2023-02-19T03:28:47.164Z,23.63
2023-02-19T03:31:19.512Z,25.08
2023-02-19T03:36:26.650Z,25.23
2023-02-19T03:39:00.986Z,25.55
2023-02-19T03:41:36.332Z,20.90
2023-02-19T03:44:10.777Z,21.73
2023-02-19T03:46:48.198Z,24.42
2023-02-19T03:49:23.904Z,18.10
2023-02-19T03:51:59.012Z,26.92
2023-02-19T03:54:35.942Z,28.77
2023-02-19T03:57:09.653Z,31.83
2023-02-19T03:59:44.766Z,27.00
2023-02-19T04:02:15.930Z,25.60
2023-02-19T04:04:50.942Z,30.75
2023-02-19T04:07:19.090Z,27.27
2023-02-19T04:09:50.602Z,29.02
2023-02-19T04:12:20.225Z,27.93
2023-02-19T04:14:53.371Z,29.55
2023-02-19T04:17:26.038Z,31.52
2023-02-19T04:19:57.479Z,34.50
2023-02-19T04:22:26.478Z,35.50
2023-02-19T04:24:56.430Z,28.92
2023-02-19T04:27:24.614Z,30.27
2023-02-19T04:29:52.596Z,33.78
2023-02-19T04:32:20.865Z,29.98
2023-02-19T04:34:48.883Z,32.30
2023-02-19T04:37:18.339Z,30.50
2023-02-19T04:39:46.512Z,31.05
2023-02-19T04:42:14.515Z,29.17
2023-02-19T04:44:42.529Z,25.73
2023-02-19T04:47:10.509Z,30.77
2023-02-19T04:49:38.571Z,23.30
2023-02-19T04:52:06.606Z,29.33
2023-02-19T04:54:35.972Z,23.75
2023-02-19T04:57:04.360Z,27.52
2023-02-19T04:59:32.550Z,28.60
2023-02-19T05:02:00.602Z,23.58
2023-02-19T05:04:28.604Z,20.42
2023-02-19T05:06:56.658Z,20.52
2023-02-19T05:09:24.798Z,19.13
2023-02-19T05:11:54.220Z,23.88
2023-02-19T05:14:22.275Z,24.15
2023-02-19T05:16:50.323Z,29.52
2023-02-19T05:19:18.358Z,27.00
2023-02-19T05:21:46.358Z,25.10
2023-02-19T05:24:14.378Z,24.42
2023-02-19T05:26:45.080Z,30.45
2023-02-19T05:29:14.780Z,30.15
2023-02-19T05:31:42.973Z,27.27
2023-02-19T05:34:11.071Z,30.85
2023-02-19T05:36:39.996Z,31.38
2023-02-19T05:39:09.499Z,38.75
2023-02-19T05:41:37.549Z,32.10
2023-02-19T05:44:05.525Z,36.20
2023-02-19T05:46:35.204Z,34.90
2023-02-19T05:49:04.493Z,32.38
2023-02-19T05:51:32.519Z,34.38
2023-02-19T05:54:00.533Z,38.67
2023-02-19T05:56:32.928Z,38.35
2023-02-19T05:59:03.894Z,39.28
2023-02-19T06:01:32.265Z,41.92
2023-02-19T06:04:01.834Z,39.72
2023-02-19T06:06:29.884Z,38.33
2023-02-19T06:08:57.954Z,43.38
2023-02-19T06:11:26.215Z,41.00
2023-02-19T06:13:54.263Z,37.28
2023-02-19T06:16:22.953Z,37.80
2023-02-19T06:18:51.125Z,40.38
2023-02-19T06:21:20.919Z,35.78
2023-02-19T06:23:49.073Z,38.42
2023-02-19T06:26:19.472Z,44.80
2023-02-19T06:28:49.059Z,41.42
2023-02-19T06:31:17.693Z,36.35
2023-02-19T06:33:45.984Z,37.08
2023-02-19T06:36:16.210Z,32.78
2023-02-19T06:38:46.210Z,31.00
2023-02-19T06:41:14.627Z,27.98
2023-02-19T06:43:43.212Z,37.03
2023-02-19T06:46:12.993Z,37.05
2023-02-19T06:48:42.468Z,42.45
2023-02-19T06:51:13.319Z,43.63
2023-02-19T06:53:41.357Z,38.05
2023-02-19T06:56:25.194Z,44.00
2023-02-19T06:58:54.007Z,43.05
2023-02-19T07:01:22.480Z,45.53
2023-02-19T07:03:52.610Z,44.13
2023-02-19T07:06:21.064Z,41.15
2023-02-19T07:08:49.357Z,42.05
2023-02-19T07:11:19.400Z,38.83
2023-02-19T07:13:47.659Z,41.63
2023-02-19T07:16:17.925Z,42.95
2023-02-19T07:18:46.042Z,35.33
2023-02-19T07:21:16.285Z,38.70
2023-02-19T07:23:45.406Z,37.53
2023-02-19T07:26:15.106Z,29.58
2023-02-19T07:28:45.403Z,35.10
2023-02-19T07:31:14.778Z,32.10
2023-02-19T07:33:44.391Z,31.98
2023-02-19T07:36:12.873Z,30.23
2023-02-19T07:38:40.971Z,37.55
2023-02-19T07:41:09.710Z,36.50
2023-02-19T07:43:39.414Z,36.88
2023-02-19T07:46:10.760Z,38.47
2023-02-19T07:48:39.806Z,35.13
2023-02-19T07:51:09.843Z,38.55
2023-02-19T07:53:38.114Z,33.38
2023-02-19T07:56:08.225Z,26.27
2023-02-19T07:58:36.664Z,25.58
2023-02-19T08:01:11.378Z,20.90
2023-02-19T08:03:39.264Z,22.92
2023-02-19T08:06:08.388Z,22.48
2023-02-19T08:08:36.394Z,25.20
2023-02-19T08:11:23.389Z,25.13
2023-02-19T08:13:52.598Z,24.92
2023-02-19T08:16:36.701Z,26.98
2023-02-19T08:19:09.070Z,20.40
2023-02-19T08:21:37.106Z,25.90
2023-02-19T08:24:05.758Z,19.55
2023-02-19T08:26:34.212Z,18.80
2023-02-19T08:29:02.312Z,23.75
2023-02-19T08:31:31.986Z,23.08
2023-02-19T08:34:00.131Z,28.27
2023-02-19T08:36:28.186Z,26.52
2023-02-19T08:38:56.214Z,22.38
2023-02-19T08:41:24.324Z,23.65
2023-02-19T08:43:52.449Z,18.27
2023-02-19T08:46:21.295Z,27.40
2023-02-19T08:48:51.096Z,18.80
2023-02-19T08:51:19.140Z,22.27
2023-02-19T08:53:47.844Z,22.30
2023-02-19T08:56:17.542Z,21.70
2023-02-19T08:58:46.400Z,20.42
2023-02-19T09:01:16.672Z,22.55
2023-02-19T09:03:45.046Z,22.58
2023-02-19T09:06:18.136Z,23.35
2023-02-19T09:08:46.551Z,22.52
2023-02-19T09:11:14.824Z,16.90
2023-02-19T09:13:43.221Z,21.13
2023-02-19T09:16:11.953Z,18.48
2023-02-19T09:18:40.384Z,18.88
2023-02-19T09:21:08.548Z,21.40
2023-02-19T09:23:38.413Z,20.92
2023-02-19T09:26:10.088Z,18.77
2023-02-19T09:28:41.649Z,19.58
2023-02-19T09:31:12.685Z,22.33
2023-02-19T09:33:44.384Z,20.33
2023-02-19T09:36:13.026Z,14.03
2023-02-19T09:38:42.767Z,12.23
2023-02-19T09:41:18.343Z,11.80
2023-02-19T09:43:47.180Z,13.07
2023-02-19T09:46:26.342Z,11.45
2023-02-19T09:48:56.889Z,14.30
2023-02-19T09:51:29.343Z,9.10
2023-02-19T09:56:28.060Z,8.00
2023-02-19T09:58:59.094Z,7.95
2023-02-19T10:01:32.251Z,9.82
2023-02-19T10:04:00.406Z,6.00
2023-02-19T10:06:30.341Z,6.82
2023-02-19T10:09:14.755Z,10.07
2023-02-19T10:11:43.418Z,10.10
2023-02-19T10:14:18.399Z,10.15
2023-02-19T10:16:49.294Z,9.13
2023-02-19T10:19:18.170Z,7.50
2023-02-19T10:21:46.740Z,11.60
2023-02-19T10:24:22.405Z,9.82
2023-02-19T10:26:51.885Z,9.02
2023-02-19T10:29:21.675Z,11.07
2023-02-19T10:31:49.886Z,8.23
2023-02-19T10:34:24.353Z,9.80
2023-02-19T10:36:53.551Z,8.95
2023-02-19T10:39:42.224Z,9.20
2023-02-19T10:42:17.213Z,9.88
2023-02-19T10:44:48.259Z,6.97
2023-02-19T10:47:22.455Z,11.57
2023-02-19T10:49:52.262Z,6.78
2023-02-19T10:52:24.304Z,6.53
2023-02-19T10:54:56.362Z,8.50
2023-02-19T10:57:35.164Z,5.65
2023-02-19T11:00:19.948Z,7.50
2023-02-19T11:02:47.942Z,9.57
2023-02-19T11:05:19.940Z,10.07
2023-02-19T11:07:50.929Z,11.57
2023-02-19T11:10:29.332Z,7.72
2023-02-19T11:13:00.189Z,8.05
2023-02-19T11:15:30.633Z,12.88
2023-02-19T11:18:01.161Z,6.90
2023-02-19T11:20:31.978Z,8.57
2023-02-19T11:23:02.770Z,6.82
2023-02-19T11:25:32.726Z,6.70
2023-02-19T11:28:07.370Z,11.48
2023-02-19T11:30:39.913Z,5.45
2023-02-19T11:33:31.054Z,6.85
2023-02-19T11:36:25.504Z,6.10
2023-02-19T11:38:53.687Z,11.63
2023-02-19T11:41:39.991Z,6.57
2023-02-19T11:44:19.263Z,5.85
2023-02-19T11:46:56.149Z,8.10
2023-02-19T11:49:40.384Z,7.30
2023-02-19T11:52:27.283Z,9.10
2023-02-19T11:54:59.212Z,10.48
2023-02-19T11:57:44.740Z,11.77
2023-02-19T12:00:38.243Z,13.23
2023-02-19T12:03:35.757Z,8.80
2023-02-19T12:06:26.754Z,9.32
2023-02-19T12:09:08.814Z,8.15
2023-02-19T12:11:59.608Z,9.25
2023-02-19T12:14:56.386Z,8.48
2023-02-19T12:17:49.291Z,6.60
2023-02-19T12:20:27.885Z,5.22
2023-02-19T12:23:13.119Z,6.18
2023-02-19T12:25:54.784Z,5.30
2023-02-19T12:28:34.841Z,4.20
2023-02-19T12:31:35.750Z,4.07
2023-02-19T12:34:36.833Z,6.10
2023-02-19T12:37:16.290Z,4.07
2023-02-19T12:39:53.261Z,3.80
2023-02-19T12:42:37.548Z,2.85
2023-02-19T12:45:12.502Z,4.97
2023-02-19T12:47:46.855Z,5.55
2023-02-19T12:50:21.137Z,5.40
2023-02-19T12:52:53.019Z,6.28
2023-02-19T12:55:25.890Z,5.03
2023-02-19T12:57:55.518Z,7.05
2023-02-19T13:00:36.670Z,6.28
2023-02-19T13:03:14.197Z,5.13
2023-02-19T13:05:49.182Z,5.95
2023-02-19T13:08:24.979Z,3.78
2023-02-19T13:10:57.615Z,4.47
2023-02-19T13:13:31.134Z,5.05
2023-02-19T13:16:04.190Z,5.35
2023-02-19T13:18:41.035Z,4.05
2023-02-19T13:21:10.416Z,4.00
2023-02-19T13:24:02.734Z,4.45
2023-02-19T13:26:46.684Z,4.65
2023-02-19T13:29:29.166Z,3.47
2023-02-19T13:32:19.233Z,4.50
2023-02-19T13:35:00.586Z,8.30
2023-02-19T13:37:32.777Z,4.57
2023-02-19T13:40:03.831Z,5.53
2023-02-19T13:42:35.004Z,4.63
2023-02-19T13:45:04.802Z,4.20
2023-02-19T13:48:01.093Z,4.85
2023-02-19T13:50:32.222Z,3.92
2023-02-19T13:53:01.267Z,4.65
2023-02-19T13:55:52.489Z,4.72
2023-02-19T13:58:52.919Z,4.45
2023-02-19T14:01:41.309Z,2.53
2023-02-19T14:04:17.347Z,2.80
2023-02-19T14:07:18.466Z,2.25
2023-02-19T14:09:48.264Z,3.20
2023-02-19T14:12:22.369Z,3.30
2023-02-19T14:14:51.526Z,3.50
2023-02-19T14:17:38.305Z,3.35
2023-02-19T14:20:41.854Z,3.85
2023-02-19T14:23:17.894Z,3.88
2023-02-19T14:26:00.211Z,2.90
2023-02-19T14:28:36.187Z,3.17
2023-02-19T14:31:22.103Z,4.03
2023-02-19T14:33:52.833Z,3.17
2023-02-19T14:36:29.686Z,3.33
2023-02-19T14:39:00.178Z,4.38
2023-02-19T14:41:33.736Z,3.60
2023-02-19T14:44:03.253Z,4.25
2023-02-19T14:46:34.138Z,3.00
2023-02-19T14:49:08.291Z,2.72
2023-02-19T14:51:40.179Z,2.17
2023-02-19T14:54:15.866Z,2.28
2023-02-19T14:56:47.831Z,3.58
2023-02-19T14:59:25.862Z,5.35
2023-02-19T15:01:59.540Z,3.20
2023-02-19T15:04:31.301Z,2.33
2023-02-19T15:07:03.409Z,1.55
2023-02-19T15:09:37.572Z,0.98
2023-02-19T15:12:07.807Z,1.60
2023-02-19T15:14:36.192Z,2.53
2023-02-19T15:17:06.544Z,2.03
2023-02-19T15:19:39.571Z,1.50
2023-02-19T15:22:08.472Z,1.90
2023-02-19T15:24:37.055Z,2.63
2023-02-19T15:27:06.856Z,2.85
2023-02-19T15:29:34.868Z,1.73
2023-02-19T15:32:03.364Z,2.03
2023-02-19T15:34:33.528Z,3.55
2023-02-19T15:37:04.952Z,1.55
2023-02-19T15:39:36.902Z,1.20
2023-02-19T15:42:08.876Z,2.22
2023-02-19T15:44:45.273Z,3.08
2023-02-19T15:47:23.824Z,1.23
2023-02-19T15:49:58.688Z,1.45
2023-02-19T15:52:34.226Z,2.03
2023-02-19T15:55:09.694Z,1.80
2023-02-19T15:57:45.154Z,2.28
2023-02-19T16:00:17.972Z,1.95
2023-02-19T16:02:47.256Z,2.03
2023-02-19T16:05:18.499Z,1.80
2023-02-19T16:07:46.518Z,2.30
2023-02-19T16:10:23.874Z,10.43
2023-02-19T16:13:01.129Z,3.30
2023-02-19T16:15:30.954Z,1.90
2023-02-19T16:18:00.567Z,3.47
2023-02-19T16:20:31.352Z,4.97
2023-02-19T16:23:02.772Z,7.82
2023-02-19T16:25:37.394Z,8.32
2023-02-19T16:28:13.927Z,4.38
2023-02-19T16:30:42.706Z,3.13
2023-02-19T16:33:34.831Z,5.07
2023-02-19T16:36:26.283Z,4.10
2023-02-19T16:39:24.956Z,3.10
2023-02-19T16:42:17.253Z,4.03
2023-02-19T16:44:48.348Z,5.32
2023-02-19T16:47:28.381Z,3.83
2023-02-19T16:49:58.213Z,4.30
2023-02-19T16:52:26.333Z,3.85
2023-02-19T16:54:54.591Z,4.43
2023-02-19T16:57:22.726Z,2.83
2023-02-19T16:59:52.182Z,2.97
2023-02-19T17:02:23.430Z,3.55
2023-02-19T17:04:55.069Z,5.10
2023-02-19T17:07:27.503Z,4.97
2023-02-19T17:12:23.922Z,3.72
2023-02-19T17:14:55.808Z,3.45
2023-02-19T17:17:24.895Z,4.25
2023-02-19T17:19:52.900Z,5.38
2023-02-19T17:22:21.034Z,5.43
2023-02-19T17:24:49.294Z,11.45
2023-02-19T17:27:17.410Z,7.68
2023-02-19T17:29:45.445Z,6.07
2023-02-19T17:32:15.630Z,5.72
2023-02-19T17:34:43.857Z,7.53
2023-02-19T17:37:12.142Z,5.72
2023-02-19T17:39:40.229Z,6.60
2023-02-19T17:42:08.761Z,7.50
2023-02-19T17:44:37.008Z,6.30
2023-02-19T17:47:05.367Z,6.50
2023-02-19T17:49:35.212Z,6.40
2023-02-19T17:52:03.186Z,7.60
2023-02-19T17:54:31.236Z,8.32
2023-02-19T17:56:59.253Z,8.63
2023-02-19T17:59:27.280Z,7.85
2023-02-19T18:01:55.749Z,11.57
2023-02-19T18:04:23.814Z,8.43
2023-02-19T18:06:54.071Z,8.07
2023-02-19T18:09:22.966Z,25.38
2023-02-19T18:11:51.073Z,16.08
2023-02-19T18:14:19.167Z,9.77
2023-02-19T18:16:50.006Z,9.70
2023-02-19T18:19:18.574Z,10.20
2023-02-19T18:21:46.672Z,11.02
2023-02-19T18:24:16.353Z,11.57
2023-02-19T18:26:44.735Z,11.95
2023-02-19T18:29:12.834Z,10.98
2023-02-19T18:31:40.963Z,11.43
2023-02-19T18:34:18.402Z,10.50
2023-02-19T18:36:46.941Z,10.98
2023-02-19T18:39:17.242Z,10.98
2023-02-19T18:41:48.969Z,13.40
2023-02-19T18:44:20.192Z,15.18
2023-02-19T18:46:48.528Z,14.73
2023-02-19T18:49:17.431Z,14.77
2023-02-19T18:51:45.529Z,12.63
2023-02-19T18:54:13.637Z,21.20
2023-02-19T18:56:44.220Z,15.95
2023-02-19T18:59:12.914Z,11.65
2023-02-19T19:01:41.503Z,14.65
2023-02-19T19:04:09.679Z,15.85
2023-02-19T19:06:37.730Z,17.70
2023-02-19T19:09:06.901Z,17.40
2023-02-19T19:11:35.185Z,18.90
2023-02-19T19:14:04.620Z,17.75
2023-02-19T19:16:32.614Z,18.30
2023-02-19T19:19:00.729Z,20.30
2023-02-19T19:21:28.717Z,21.23
2023-02-19T19:23:57.234Z,21.10
2023-02-19T19:26:25.316Z,18.90
2023-02-19T19:28:54.474Z,20.30
2023-02-19T19:31:24.810Z,20.80
2023-02-19T19:33:52.994Z,22.55
2023-02-19T19:36:23.476Z,23.27
2023-02-19T19:38:51.547Z,22.95
2023-02-19T19:41:20.797Z,21.77
2023-02-19T19:43:49.005Z,27.88
2023-02-19T19:46:19.925Z,29.85
2023-02-19T19:48:50.753Z,30.02
2023-02-19T19:51:18.815Z,30.83
2023-02-19T19:53:48.672Z,30.67
2023-02-19T19:56:17.098Z,31.92
2023-02-19T19:58:45.471Z,36.17
2023-02-19T20:01:14.996Z,36.78
2023-02-19T20:03:43.061Z,38.22
2023-02-19T20:06:12.442Z,34.92
2023-02-19T20:08:40.412Z,37.67
2023-02-19T20:11:08.541Z,35.95
2023-02-19T20:13:36.625Z,34.63
2023-02-19T20:16:06.095Z,38.28
2023-02-19T20:18:36.017Z,34.22
2023-02-19T20:21:04.488Z,35.75
2023-02-19T20:23:33.863Z,37.55
2023-02-19T20:26:01.938Z,42.88
2023-02-19T20:28:29.964Z,40.25
2023-02-19T20:30:58.002Z,41.20
2023-02-19T20:33:26.148Z,44.35
2023-02-19T20:35:54.347Z,46.08
2023-02-19T20:38:22.433Z,40.35
2023-02-19T20:40:51.850Z,42.35
2023-02-19T20:43:19.900Z,41.22
2023-02-19T20:45:48.404Z,41.60
2023-02-19T20:48:17.422Z,39.00
2023-02-19T20:50:45.768Z,41.28
2023-02-19T20:53:13.845Z,42.15
2023-02-19T20:55:41.930Z,42.10
2023-02-19T20:58:11.347Z,38.75
2023-02-19T21:00:39.350Z,37.65
2023-02-19T21:03:09.020Z,39.85
2023-02-19T21:05:38.579Z,39.95
2023-02-19T21:08:06.979Z,38.90
2023-02-19T21:10:35.057Z,37.38
2023-02-19T21:13:03.388Z,36.53
2023-02-19T21:15:32.829Z,36.50
2023-02-19T21:18:00.931Z,36.65
2023-02-19T21:20:28.958Z,35.80
2023-02-19T21:22:56.992Z,34.85
2023-02-19T21:25:24.981Z,36.92
2023-02-19T21:27:53.043Z,35.60
2023-02-19T21:30:21.207Z,38.80
2023-02-19T21:32:50.648Z,39.30
2023-02-19T21:35:18.660Z,37.53
2023-02-19T21:37:46.705Z,43.72
2023-02-19T21:40:15.079Z,42.80
2023-02-19T21:42:43.088Z,37.85
2023-02-19T21:45:11.321Z,35.35
2023-02-19T21:47:39.342Z,40.65
2023-02-19T21:50:09.922Z,44.70
2023-02-19T21:52:38.045Z,40.92
2023-02-19T21:55:06.729Z,48.47
2023-02-19T21:57:34.795Z,45.83
2023-02-19T22:00:03.272Z,40.47
2023-02-19T22:02:31.308Z,56.47
2023-02-19T22:04:59.614Z,45.47
2023-02-19T22:07:30.488Z,48.95
2023-02-19T22:09:58.739Z,44.90
2023-02-19T22:12:26.964Z,39.70
2023-02-19T22:14:54.989Z,57.17
2023-02-19T22:17:23.036Z,66.50
2023-02-19T22:19:51.178Z,50.53
2023-02-19T22:22:19.406Z,50.00
2023-02-19T22:24:48.784Z,48.88
2023-02-19T22:27:16.766Z,50.05
2023-02-19T22:29:44.751Z,54.72
2023-02-19T22:32:12.839Z,47.88
2023-02-19T22:34:41.913Z,45.90
2023-02-19T22:37:10.274Z,64.35
2023-02-19T22:39:38.666Z,53.67
2023-02-19T22:42:09.946Z,51.65
2023-02-19T22:44:38.373Z,43.25
2023-02-19T22:47:06.451Z,65.43
2023-02-19T22:49:34.606Z,68.22
2023-02-19T22:52:07.512Z,53.78
2023-02-19T22:54:36.083Z,48.83
2023-02-19T22:57:04.332Z,45.17
2023-02-19T22:59:33.759Z,45.72
2023-02-19T23:02:01.810Z,48.85
2023-02-19T23:04:29.869Z,46.28
2023-02-19T23:06:57.936Z,40.00
2023-02-19T23:09:28.166Z,43.75
2023-02-19T23:12:02.703Z,44.55
2023-02-19T23:14:30.739Z,43.83
2023-02-19T23:17:00.501Z,44.42
2023-02-19T23:19:28.911Z,48.45
2023-02-19T23:21:57.255Z,45.92
2023-02-19T23:24:25.362Z,45.92
2023-02-19T23:26:54.718Z,45.67
2023-02-19T23:29:25.347Z,46.20
2023-02-19T23:31:53.758Z,46.20
2023-02-19T23:34:24.342Z,48.97
2023-02-19T23:36:53.003Z,47.97
2023-02-19T23:39:22.672Z,51.80
2023-02-19T23:41:52.766Z,49.05
2023-02-19T23:44:21.901Z,53.28
2023-02-19T23:46:51.057Z,56.67
2023-02-19T23:49:19.790Z,56.45
2023-02-19T23:51:49.174Z,61.15
2023-02-19T23:54:17.234Z,63.28
2023-02-19T23:56:45.289Z,60.30
2023-02-19T23:59:13.796Z,58.70
